TUCKAHOE MD US current weather conditions

sailwx.info

Wind from 283 at 2 knots gusting 7

Air temperature 31.7° C
Dewpoint 22.4° C

Last reported at 2020-Jul-11 19:16 UTC.
Time now 2020-Jul-11 21:07 UTC

Location: N 38°57' W 075°56'.
View on Google Maps.

See reports from other nearby stations

  
Tides and Currents Weather Stations Pressure Air Temp Water Temp Dewpoint Dewpoint Depression Visibility Wind Speed Wind Dir Waves Ship Positions
date/time (UTC)wind fromknots sea level pressurealtimeterstation pressurevisibilityair tempwater tempwave heightnotes
2020-Jul-11 19:16 283 2 gusting 7 31.7
2020-Jul-11 18:16 288 2 gusting 8 31.1
2020-Jul-11 17:16 315 3 gusting 8 30.0
2020-Jul-11 16:16 283 1 gusting 6 30.6
2020-Jul-11 15:16 243 0 gusting 8 28.3
2020-Jul-11 14:16 257 0 gusting 4 27.8
2020-Jul-11 13:16 281 0 gusting 4 27.2
2020-Jul-11 12:16 249 0 gusting 4 26.7
2020-Jul-11 11:16 25.6
2020-Jul-11 10:16 23.3
2020-Jul-11 09:16 23.9
2020-Jul-11 08:16 23.3
2020-Jul-11 07:16 113 0 gusting 3 24.4
2020-Jul-11 06:16 23.3
2020-Jul-11 05:16 22.8
2020-Jul-11 04:16 23.3
2020-Jul-11 03:16 22.8
2020-Jul-11 02:16 22.8
2020-Jul-11 01:16 23.9
2020-Jul-11 00:16 300 1 gusting 9 26.1
2020-Jul-10 23:16 301 3 gusting 12 27.8
2020-Jul-10 22:16 309 5 gusting 14 27.8
2020-Jul-10 21:16 318 6 gusting 16 28.3
2020-Jul-10 20:16 333 8 gusting 25 26.7
2020-Jul-10 19:16 331 10 gusting 24 26.7
2020-Jul-10 18:16 337 8 gusting 19 25.6
2020-Jul-10 17:16 351 8 gusting 19 25.0
2020-Jul-10 16:16 342 8 gusting 18 23.9
2020-Jul-10 15:16 356 5 gusting 13 23.9
2020-Jul-10 14:16 006 2 gusting 11 23.3
2020-Jul-10 13:16 014 1 gusting 10 23.3
2020-Jul-10 12:16 016 1 gusting 8 23.3
2020-Jul-10 11:16 029 0 gusting 7 23.9
2020-Jul-10 10:16 029 0 gusting 6 23.9
2020-Jul-10 09:16 020 0 gusting 6 23.3
2020-Jul-10 08:16 23.9
2020-Jul-10 07:16 23.9
2020-Jul-10 06:16 356 0 gusting 1 23.9
2020-Jul-10 05:16 23.9
2020-Jul-10 04:16 047 0 gusting 5 24.4
2020-Jul-10 03:16 24.4
2020-Jul-10 02:16 091 0 gusting 5 25.0
2020-Jul-10 01:16 098 1 gusting 6 25.6
2020-Jul-10 00:16 099 2 gusting 8 26.7
2020-Jul-09 23:16 092 4 gusting 11 28.3
2020-Jul-09 22:16 086 4 gusting 10 30.0
2020-Jul-09 21:16 095 3 gusting 10 30.6